sensor_id;sensor_type;location;lat;lon;timestamp;P1;durP1;ratioP1;P2;durP2;ratioP2
19004;SDS011;9635;52.078;8.648;2023-11-18T00:02:33;88.32;;;30.30;;
19004;SDS011;9635;52.078;8.648;2023-11-18T00:07:37;96.00;;;32.17;;
19004;SDS011;9635;52.078;8.648;2023-11-18T00:12:42;94.57;;;31.60;;
19004;SDS011;9635;52.078;8.648;2023-11-18T00:17:45;89.57;;;31.05;;
19004;SDS011;9635;52.078;8.648;2023-11-18T00:22:48;100.10;;;34.13;;
19004;SDS011;9635;52.078;8.648;2023-11-18T00:27:54;97.22;;;31.60;;
19004;SDS011;9635;52.078;8.648;2023-11-18T00:32:57;93.30;;;33.35;;
19004;SDS011;9635;52.078;8.648;2023-11-18T00:38:04;79.38;;;31.67;;
19004;SDS011;9635;52.078;8.648;2023-11-18T00:43:08;82.65;;;31.58;;
19004;SDS011;9635;52.078;8.648;2023-11-18T00:48:11;80.45;;;29.02;;
19004;SDS011;9635;52.078;8.648;2023-11-18T00:53:14;71.00;;;27.63;;
19004;SDS011;9635;52.078;8.648;2023-11-18T00:58:18;68.15;;;28.27;;
19004;SDS011;9635;52.078;8.648;2023-11-18T01:03:21;72.10;;;29.23;;
19004;SDS011;9635;52.078;8.648;2023-11-18T01:08:24;82.28;;;30.25;;
19004;SDS011;9635;52.078;8.648;2023-11-18T01:13:29;65.00;;;28.33;;
19004;SDS011;9635;52.078;8.648;2023-11-18T01:18:32;69.15;;;28.63;;
19004;SDS011;9635;52.078;8.648;2023-11-18T01:23:36;65.65;;;26.50;;
19004;SDS011;9635;52.078;8.648;2023-11-18T01:28:41;70.78;;;29.05;;
19004;SDS011;9635;52.078;8.648;2023-11-18T01:33:46;64.55;;;27.85;;
19004;SDS011;9635;52.078;8.648;2023-11-18T01:38:52;74.57;;;29.17;;
19004;SDS011;9635;52.078;8.648;2023-11-18T01:43:58;64.63;;;27.52;;
19004;SDS011;9635;52.078;8.648;2023-11-18T01:49:01;89.70;;;29.90;;
19004;SDS011;9635;52.078;8.648;2023-11-18T01:54:05;111.40;;;35.08;;
19004;SDS011;9635;52.078;8.648;2023-11-18T01:59:11;91.15;;;33.67;;
19004;SDS011;9635;52.078;8.648;2023-11-18T02:04:19;102.75;;;33.00;;
19004;SDS011;9635;52.078;8.648;2023-11-18T02:09:23;102.50;;;35.22;;
19004;SDS011;9635;52.078;8.648;2023-11-18T02:14:32;101.13;;;35.65;;
19004;SDS011;9635;52.078;8.648;2023-11-18T02:19:39;101.32;;;36.42;;
19004;SDS011;9635;52.078;8.648;2023-11-18T02:24:43;95.93;;;36.72;;
19004;SDS011;9635;52.078;8.648;2023-11-18T02:29:47;97.13;;;33.53;;
19004;SDS011;9635;52.078;8.648;2023-11-18T02:34:55;87.78;;;33.08;;
19004;SDS011;9635;52.078;8.648;2023-11-18T02:45:14;102.10;;;34.53;;
19004;SDS011;9635;52.078;8.648;2023-11-18T02:50:19;98.82;;;33.60;;
19004;SDS011;9635;52.078;8.648;2023-11-18T02:55:22;111.75;;;37.17;;
19004;SDS011;9635;52.078;8.648;2023-11-18T03:00:27;107.05;;;34.35;;
19004;SDS011;9635;52.078;8.648;2023-11-18T03:05:30;102.60;;;35.45;;
19004;SDS011;9635;52.078;8.648;2023-11-18T03:10:34;100.15;;;32.08;;
19004;SDS011;9635;52.078;8.648;2023-11-18T03:15:40;88.97;;;30.25;;
19004;SDS011;9635;52.078;8.648;2023-11-18T03:20:44;92.50;;;32.85;;
19004;SDS011;9635;52.078;8.648;2023-11-18T03:25:47;93.20;;;31.38;;
19004;SDS011;9635;52.078;8.648;2023-11-18T03:30:52;82.78;;;30.42;;
19004;SDS011;9635;52.078;8.648;2023-11-18T03:35:56;84.30;;;30.15;;
19004;SDS011;9635;52.078;8.648;2023-11-18T03:40:59;78.10;;;29.40;;
19004;SDS011;9635;52.078;8.648;2023-11-18T03:46:04;80.05;;;31.40;;
19004;SDS011;9635;52.078;8.648;2023-11-18T03:51:09;90.00;;;32.55;;
19004;SDS011;9635;52.078;8.648;2023-11-18T03:56:16;82.30;;;31.10;;
19004;SDS011;9635;52.078;8.648;2023-11-18T04:01:21;83.65;;;30.00;;
19004;SDS011;9635;52.078;8.648;2023-11-18T04:06:25;233.15;;;34.53;;
19004;SDS011;9635;52.078;8.648;2023-11-18T04:11:28;283.10;;;36.63;;
19004;SDS011;9635;52.078;8.648;2023-11-18T04:16:32;144.07;;;34.33;;
19004;SDS011;9635;52.078;8.648;2023-11-18T04:21:37;195.50;;;35.15;;
19004;SDS011;9635;52.078;8.648;2023-11-18T04:26:40;321.55;;;38.47;;
19004;SDS011;9635;52.078;8.648;2023-11-18T04:31:45;198.00;;;36.80;;
19004;SDS011;9635;52.078;8.648;2023-11-18T04:36:48;241.10;;;38.92;;
19004;SDS011;9635;52.078;8.648;2023-11-18T04:41:52;239.82;;;37.47;;
19004;SDS011;9635;52.078;8.648;2023-11-18T04:46:56;295.73;;;39.83;;
19004;SDS011;9635;52.078;8.648;2023-11-18T04:51:59;264.35;;;44.13;;
19004;SDS011;9635;52.078;8.648;2023-11-18T04:57:02;379.30;;;45.90;;
19004;SDS011;9635;52.078;8.648;2023-11-18T05:02:07;335.38;;;46.00;;
19004;SDS011;9635;52.078;8.648;2023-11-18T05:07:10;199.45;;;41.20;;
19004;SDS011;9635;52.078;8.648;2023-11-18T05:12:13;198.95;;;41.92;;
19004;SDS011;9635;52.078;8.648;2023-11-18T05:17:17;206.38;;;41.17;;
19004;SDS011;9635;52.078;8.648;2023-11-18T05:22:20;201.23;;;42.42;;
19004;SDS011;9635;52.078;8.648;2023-11-18T05:27:25;208.20;;;40.10;;
19004;SDS011;9635;52.078;8.648;2023-11-18T05:32:30;190.98;;;36.50;;
19004;SDS011;9635;52.078;8.648;2023-11-18T05:37:33;184.27;;;36.05;;
19004;SDS011;9635;52.078;8.648;2023-11-18T05:42:39;258.20;;;39.38;;
19004;SDS011;9635;52.078;8.648;2023-11-18T05:47:44;153.02;;;37.05;;
19004;SDS011;9635;52.078;8.648;2023-11-18T05:52:48;172.23;;;34.17;;
19004;SDS011;9635;52.078;8.648;2023-11-18T05:57:51;206.07;;;36.30;;
19004;SDS011;9635;52.078;8.648;2023-11-18T06:02:56;161.93;;;30.05;;
19004;SDS011;9635;52.078;8.648;2023-11-18T06:08:01;141.80;;;33.85;;
19004;SDS011;9635;52.078;8.648;2023-11-18T06:13:05;175.35;;;35.60;;
19004;SDS011;9635;52.078;8.648;2023-11-18T06:18:11;157.43;;;35.53;;
19004;SDS011;9635;52.078;8.648;2023-11-18T06:23:15;106.65;;;34.97;;
19004;SDS011;9635;52.078;8.648;2023-11-18T06:28:20;102.57;;;33.03;;
19004;SDS011;9635;52.078;8.648;2023-11-18T06:33:24;94.53;;;32.80;;
19004;SDS011;9635;52.078;8.648;2023-11-18T06:38:29;98.78;;;32.92;;
19004;SDS011;9635;52.078;8.648;2023-11-18T06:43:34;96.07;;;32.95;;
19004;SDS011;9635;52.078;8.648;2023-11-18T06:48:54;83.72;;;29.65;;
19004;SDS011;9635;52.078;8.648;2023-11-18T06:53:59;83.78;;;30.45;;
19004;SDS011;9635;52.078;8.648;2023-11-18T06:59:04;85.38;;;31.98;;
19004;SDS011;9635;52.078;8.648;2023-11-18T07:04:09;78.78;;;30.48;;
19004;SDS011;9635;52.078;8.648;2023-11-18T07:09:12;78.32;;;28.55;;
19004;SDS011;9635;52.078;8.648;2023-11-18T07:14:19;72.97;;;29.45;;
19004;SDS011;9635;52.078;8.648;2023-11-18T07:19:24;72.22;;;28.10;;
19004;SDS011;9635;52.078;8.648;2023-11-18T07:24:27;69.55;;;25.92;;
19004;SDS011;9635;52.078;8.648;2023-11-18T07:29:31;69.25;;;28.00;;
19004;SDS011;9635;52.078;8.648;2023-11-18T07:34:36;65.40;;;27.27;;
19004;SDS011;9635;52.078;8.648;2023-11-18T07:39:39;64.78;;;27.25;;
19004;SDS011;9635;52.078;8.648;2023-11-18T07:44:46;61.78;;;26.45;;
19004;SDS011;9635;52.078;8.648;2023-11-18T07:49:51;58.15;;;23.75;;
19004;SDS011;9635;52.078;8.648;2023-11-18T07:54:54;58.92;;;25.48;;
19004;SDS011;9635;52.078;8.648;2023-11-18T07:59:57;56.92;;;23.85;;
19004;SDS011;9635;52.078;8.648;2023-11-18T08:05:15;59.35;;;24.60;;
19004;SDS011;9635;52.078;8.648;2023-11-18T08:10:20;54.38;;;24.05;;
19004;SDS011;9635;52.078;8.648;2023-11-18T08:15:23;52.88;;;23.23;;
19004;SDS011;9635;52.078;8.648;2023-11-18T08:20:29;45.58;;;21.02;;
19004;SDS011;9635;52.078;8.648;2023-11-18T08:25:32;40.47;;;18.92;;
19004;SDS011;9635;52.078;8.648;2023-11-18T08:30:37;46.33;;;21.33;;
19004;SDS011;9635;52.078;8.648;2023-11-18T08:35:42;38.83;;;20.92;;
19004;SDS011;9635;52.078;8.648;2023-11-18T08:40:45;37.13;;;20.58;;
19004;SDS011;9635;52.078;8.648;2023-11-18T08:45:50;40.03;;;17.98;;
19004;SDS011;9635;52.078;8.648;2023-11-18T08:50:54;39.53;;;19.02;;
19004;SDS011;9635;52.078;8.648;2023-11-18T08:55:57;35.95;;;18.15;;
19004;SDS011;9635;52.078;8.648;2023-11-18T09:01:00;35.42;;;17.55;;
19004;SDS011;9635;52.078;8.648;2023-11-18T09:06:10;34.78;;;15.48;;
19004;SDS011;9635;52.078;8.648;2023-11-18T09:11:21;32.08;;;16.65;;
19004;SDS011;9635;52.078;8.648;2023-11-18T09:16:30;29.20;;;16.45;;
19004;SDS011;9635;52.078;8.648;2023-11-18T09:21:37;28.77;;;16.40;;
19004;SDS011;9635;52.078;8.648;2023-11-18T09:26:41;24.52;;;15.85;;
19004;SDS011;9635;52.078;8.648;2023-11-18T09:31:48;26.85;;;14.80;;
19004;SDS011;9635;52.078;8.648;2023-11-18T09:36:56;24.00;;;14.40;;
19004;SDS011;9635;52.078;8.648;2023-11-18T09:42:00;24.95;;;15.02;;
19004;SDS011;9635;52.078;8.648;2023-11-18T09:47:07;22.60;;;12.90;;
19004;SDS011;9635;52.078;8.648;2023-11-18T09:52:15;28.80;;;13.93;;
19004;SDS011;9635;52.078;8.648;2023-11-18T09:57:22;22.35;;;13.93;;
19004;SDS011;9635;52.078;8.648;2023-11-18T10:02:32;21.80;;;12.85;;
19004;SDS011;9635;52.078;8.648;2023-11-18T10:07:37;20.40;;;13.65;;
19004;SDS011;9635;52.078;8.648;2023-11-18T10:12:46;23.30;;;14.07;;
19004;SDS011;9635;52.078;8.648;2023-11-18T10:17:53;20.33;;;12.10;;
19004;SDS011;9635;52.078;8.648;2023-11-18T10:23:09;22.00;;;12.00;;
19004;SDS011;9635;52.078;8.648;2023-11-18T10:28:20;20.02;;;12.15;;
19004;SDS011;9635;52.078;8.648;2023-11-18T10:33:24;23.00;;;12.68;;
19004;SDS011;9635;52.078;8.648;2023-11-18T10:38:39;19.52;;;12.25;;
19004;SDS011;9635;52.078;8.648;2023-11-18T10:43:46;20.80;;;12.55;;
19004;SDS011;9635;52.078;8.648;2023-11-18T10:48:50;20.77;;;11.73;;
19004;SDS011;9635;52.078;8.648;2023-11-18T10:53:55;19.40;;;12.63;;
19004;SDS011;9635;52.078;8.648;2023-11-18T10:59:04;18.95;;;11.65;;
19004;SDS011;9635;52.078;8.648;2023-11-18T11:04:08;18.88;;;11.73;;
19004;SDS011;9635;52.078;8.648;2023-11-18T11:09:13;17.15;;;12.35;;
19004;SDS011;9635;52.078;8.648;2023-11-18T11:14:20;18.35;;;11.80;;
19004;SDS011;9635;52.078;8.648;2023-11-18T11:19:25;18.88;;;11.82;;
19004;SDS011;9635;52.078;8.648;2023-11-18T11:35:22;19.02;;;13.20;;
19004;SDS011;9635;52.078;8.648;2023-11-18T11:40:29;19.35;;;12.43;;
19004;SDS011;9635;52.078;8.648;2023-11-18T11:45:36;18.65;;;11.68;;
19004;SDS011;9635;52.078;8.648;2023-11-18T11:50:43;23.98;;;13.05;;
19004;SDS011;9635;52.078;8.648;2023-11-18T11:55:57;21.67;;;13.45;;
19004;SDS011;9635;52.078;8.648;2023-11-18T12:01:15;20.25;;;12.15;;
19004;SDS011;9635;52.078;8.648;2023-11-18T12:06:20;20.42;;;12.32;;
19004;SDS011;9635;52.078;8.648;2023-11-18T12:11:26;19.05;;;12.75;;
19004;SDS011;9635;52.078;8.648;2023-11-18T12:22:15;21.40;;;13.75;;
19004;SDS011;9635;52.078;8.648;2023-11-18T12:33:01;21.80;;;13.73;;
19004;SDS011;9635;52.078;8.648;2023-11-18T12:38:20;20.83;;;12.73;;
19004;SDS011;9635;52.078;8.648;2023-11-18T12:43:47;20.05;;;12.05;;
19004;SDS011;9635;52.078;8.648;2023-11-18T12:48:53;19.42;;;12.85;;
19004;SDS011;9635;52.078;8.648;2023-11-18T12:54:01;23.58;;;13.45;;
19004;SDS011;9635;52.078;8.648;2023-11-18T12:59:08;20.65;;;13.75;;
19004;SDS011;9635;52.078;8.648;2023-11-18T13:04:12;22.45;;;12.55;;
19004;SDS011;9635;52.078;8.648;2023-11-18T13:09:16;20.95;;;12.45;;
19004;SDS011;9635;52.078;8.648;2023-11-18T13:14:27;21.80;;;14.20;;
19004;SDS011;9635;52.078;8.648;2023-11-18T13:19:33;22.40;;;13.57;;
19004;SDS011;9635;52.078;8.648;2023-11-18T13:24:37;26.88;;;14.68;;
19004;SDS011;9635;52.078;8.648;2023-11-18T13:29:43;22.08;;;14.32;;
19004;SDS011;9635;52.078;8.648;2023-11-18T13:34:51;26.45;;;15.82;;
19004;SDS011;9635;52.078;8.648;2023-11-18T13:39:55;24.77;;;15.05;;
19004;SDS011;9635;52.078;8.648;2023-11-18T13:44:59;21.13;;;12.93;;
19004;SDS011;9635;52.078;8.648;2023-11-18T13:50:07;51.17;;;25.02;;
19004;SDS011;9635;52.078;8.648;2023-11-18T13:55:11;30.65;;;17.10;;
19004;SDS011;9635;52.078;8.648;2023-11-18T14:00:18;25.95;;;15.18;;
19004;SDS011;9635;52.078;8.648;2023-11-18T14:05:26;28.92;;;15.63;;
19004;SDS011;9635;52.078;8.648;2023-11-18T14:10:29;29.50;;;14.90;;
19004;SDS011;9635;52.078;8.648;2023-11-18T14:15:32;25.02;;;13.75;;
19004;SDS011;9635;52.078;8.648;2023-11-18T14:20:37;20.42;;;12.93;;
19004;SDS011;9635;52.078;8.648;2023-11-18T14:25:41;21.27;;;12.70;;
19004;SDS011;9635;52.078;8.648;2023-11-18T14:30:44;20.85;;;11.40;;
19004;SDS011;9635;52.078;8.648;2023-11-18T14:35:48;23.23;;;13.18;;
19004;SDS011;9635;52.078;8.648;2023-11-18T14:40:51;24.00;;;14.30;;
19004;SDS011;9635;52.078;8.648;2023-11-18T14:45:55;19.95;;;11.93;;
19004;SDS011;9635;52.078;8.648;2023-11-18T14:51:01;22.15;;;14.15;;
19004;SDS011;9635;52.078;8.648;2023-11-18T14:56:08;19.52;;;12.40;;
19004;SDS011;9635;52.078;8.648;2023-11-18T15:01:11;24.67;;;13.00;;
19004;SDS011;9635;52.078;8.648;2023-11-18T15:06:15;22.17;;;12.07;;
19004;SDS011;9635;52.078;8.648;2023-11-18T15:11:26;15.00;;;9.77;;
19004;SDS011;9635;52.078;8.648;2023-11-18T15:16:29;13.63;;;9.13;;
19004;SDS011;9635;52.078;8.648;2023-11-18T15:21:34;14.65;;;8.05;;
19004;SDS011;9635;52.078;8.648;2023-11-18T15:26:36;12.90;;;8.00;;
19004;SDS011;9635;52.078;8.648;2023-11-18T15:31:40;18.83;;;9.93;;
19004;SDS011;9635;52.078;8.648;2023-11-18T15:36:44;11.82;;;7.28;;
19004;SDS011;9635;52.078;8.648;2023-11-18T15:41:48;15.50;;;7.90;;
19004;SDS011;9635;52.078;8.648;2023-11-18T15:46:51;12.65;;;6.55;;
19004;SDS011;9635;52.078;8.648;2023-11-18T15:51:55;12.20;;;7.50;;
19004;SDS011;9635;52.078;8.648;2023-11-18T15:56:58;18.17;;;8.15;;
19004;SDS011;9635;52.078;8.648;2023-11-18T16:02:01;10.95;;;7.10;;
19004;SDS011;9635;52.078;8.648;2023-11-18T16:07:08;12.93;;;6.55;;
19004;SDS011;9635;52.078;8.648;2023-11-18T16:12:11;13.88;;;7.95;;
19004;SDS011;9635;52.078;8.648;2023-11-18T16:17:14;7.47;;;4.45;;
19004;SDS011;9635;52.078;8.648;2023-11-18T16:22:18;5.18;;;3.35;;
19004;SDS011;9635;52.078;8.648;2023-11-18T16:27:21;5.30;;;3.75;;
19004;SDS011;9635;52.078;8.648;2023-11-18T16:32:24;6.68;;;3.55;;
19004;SDS011;9635;52.078;8.648;2023-11-18T16:37:29;10.35;;;5.65;;
19004;SDS011;9635;52.078;8.648;2023-11-18T16:42:32;6.82;;;3.85;;
19004;SDS011;9635;52.078;8.648;2023-11-18T16:47:35;3.70;;;2.40;;
19004;SDS011;9635;52.078;8.648;2023-11-18T16:52:39;13.10;;;9.25;;
19004;SDS011;9635;52.078;8.648;2023-11-18T16:57:42;9.77;;;6.35;;
19004;SDS011;9635;52.078;8.648;2023-11-18T17:02:48;4.95;;;3.80;;
19004;SDS011;9635;52.078;8.648;2023-11-18T17:07:57;6.32;;;4.40;;
19004;SDS011;9635;52.078;8.648;2023-11-18T17:13:02;7.50;;;6.00;;
19004;SDS011;9635;52.078;8.648;2023-11-18T17:18:05;10.77;;;5.60;;
19004;SDS011;9635;52.078;8.648;2023-11-18T17:23:10;15.98;;;9.57;;
19004;SDS011;9635;52.078;8.648;2023-11-18T17:28:14;16.35;;;9.50;;
19004;SDS011;9635;52.078;8.648;2023-11-18T17:33:18;12.50;;;8.23;;
19004;SDS011;9635;52.078;8.648;2023-11-18T17:38:23;19.13;;;10.40;;
19004;SDS011;9635;52.078;8.648;2023-11-18T17:43:26;19.63;;;11.00;;
19004;SDS011;9635;52.078;8.648;2023-11-18T17:48:29;15.60;;;9.50;;
19004;SDS011;9635;52.078;8.648;2023-11-18T17:53:33;17.55;;;9.35;;
19004;SDS011;9635;52.078;8.648;2023-11-18T17:58:36;16.08;;;8.48;;
19004;SDS011;9635;52.078;8.648;2023-11-18T18:03:39;14.95;;;8.77;;
19004;SDS011;9635;52.078;8.648;2023-11-18T18:08:45;11.82;;;7.05;;
19004;SDS011;9635;52.078;8.648;2023-11-18T18:13:48;8.05;;;5.90;;
19004;SDS011;9635;52.078;8.648;2023-11-18T18:18:51;11.13;;;4.90;;
19004;SDS011;9635;52.078;8.648;2023-11-18T18:23:56;7.88;;;4.50;;
19004;SDS011;9635;52.078;8.648;2023-11-18T18:28:59;4.15;;;3.75;;
19004;SDS011;9635;52.078;8.648;2023-11-18T18:34:02;3.13;;;2.63;;
19004;SDS011;9635;52.078;8.648;2023-11-18T18:39:06;6.20;;;3.78;;
19004;SDS011;9635;52.078;8.648;2023-11-18T18:44:09;4.30;;;3.35;;
19004;SDS011;9635;52.078;8.648;2023-11-18T18:49:12;5.05;;;3.67;;
19004;SDS011;9635;52.078;8.648;2023-11-18T18:54:20;6.95;;;4.18;;
19004;SDS011;9635;52.078;8.648;2023-11-18T18:59:22;3.38;;;3.08;;
19004;SDS011;9635;52.078;8.648;2023-11-18T19:04:25;3.92;;;3.00;;
19004;SDS011;9635;52.078;8.648;2023-11-18T19:09:30;4.22;;;3.15;;
19004;SDS011;9635;52.078;8.648;2023-11-18T19:14:32;3.50;;;3.20;;
19004;SDS011;9635;52.078;8.648;2023-11-18T19:19:35;4.38;;;3.85;;
19004;SDS011;9635;52.078;8.648;2023-11-18T19:24:40;3.90;;;3.15;;
19004;SDS011;9635;52.078;8.648;2023-11-18T19:29:43;3.53;;;2.78;;
19004;SDS011;9635;52.078;8.648;2023-11-18T19:34:46;3.55;;;2.92;;
19004;SDS011;9635;52.078;8.648;2023-11-18T19:39:51;2.80;;;2.60;;
19004;SDS011;9635;52.078;8.648;2023-11-18T19:44:54;3.08;;;2.78;;
19004;SDS011;9635;52.078;8.648;2023-11-18T19:49:57;2.53;;;2.33;;
19004;SDS011;9635;52.078;8.648;2023-11-18T19:55:02;3.40;;;2.40;;
19004;SDS011;9635;52.078;8.648;2023-11-18T20:00:05;2.17;;;1.98;;
19004;SDS011;9635;52.078;8.648;2023-11-18T20:05:15;2.42;;;1.98;;
19004;SDS011;9635;52.078;8.648;2023-11-18T20:10:20;2.47;;;2.28;;
19004;SDS011;9635;52.078;8.648;2023-11-18T20:15:23;2.15;;;1.95;;
19004;SDS011;9635;52.078;8.648;2023-11-18T20:20:29;2.05;;;1.88;;
19004;SDS011;9635;52.078;8.648;2023-11-18T20:25:33;2.08;;;1.73;;
19004;SDS011;9635;52.078;8.648;2023-11-18T20:30:36;1.67;;;1.50;;
19004;SDS011;9635;52.078;8.648;2023-11-18T20:35:39;1.60;;;1.50;;
19004;SDS011;9635;52.078;8.648;2023-11-18T20:40:45;1.63;;;1.50;;
19004;SDS011;9635;52.078;8.648;2023-11-18T20:45:49;1.73;;;1.30;;
19004;SDS011;9635;52.078;8.648;2023-11-18T20:50:53;1.55;;;1.45;;
19004;SDS011;9635;52.078;8.648;2023-11-18T20:55:57;1.33;;;1.23;;
19004;SDS011;9635;52.078;8.648;2023-11-18T21:01:00;1.73;;;1.50;;
19004;SDS011;9635;52.078;8.648;2023-11-18T21:06:03;1.90;;;1.70;;
19004;SDS011;9635;52.078;8.648;2023-11-18T21:11:09;1.92;;;1.60;;
19004;SDS011;9635;52.078;8.648;2023-11-18T21:16:12;1.30;;;1.20;;
19004;SDS011;9635;52.078;8.648;2023-11-18T21:21:15;1.90;;;1.80;;
19004;SDS011;9635;52.078;8.648;2023-11-18T21:26:22;1.70;;;1.60;;
19004;SDS011;9635;52.078;8.648;2023-11-18T21:31:26;1.75;;;1.55;;
19004;SDS011;9635;52.078;8.648;2023-11-18T21:36:29;1.50;;;1.40;;
19004;SDS011;9635;52.078;8.648;2023-11-18T21:41:34;3.95;;;2.03;;
19004;SDS011;9635;52.078;8.648;2023-11-18T21:46:37;2.30;;;2.00;;
19004;SDS011;9635;52.078;8.648;2023-11-18T21:51:40;1.70;;;1.60;;
19004;SDS011;9635;52.078;8.648;2023-11-18T21:56:44;2.90;;;1.70;;
19004;SDS011;9635;52.078;8.648;2023-11-18T22:01:47;2.17;;;1.80;;
19004;SDS011;9635;52.078;8.648;2023-11-18T22:06:50;1.85;;;1.75;;
19004;SDS011;9635;52.078;8.648;2023-11-18T22:11:57;2.42;;;1.40;;
19004;SDS011;9635;52.078;8.648;2023-11-18T22:17:00;2.97;;;1.70;;
19004;SDS011;9635;52.078;8.648;2023-11-18T22:22:03;1.73;;;1.33;;
19004;SDS011;9635;52.078;8.648;2023-11-18T22:27:07;4.28;;;1.77;;
19004;SDS011;9635;52.078;8.648;2023-11-18T22:32:11;1.60;;;1.50;;
19004;SDS011;9635;52.078;8.648;2023-11-18T22:37:14;2.72;;;1.90;;
19004;SDS011;9635;52.078;8.648;2023-11-18T22:42:18;1.75;;;1.40;;
19004;SDS011;9635;52.078;8.648;2023-11-18T22:47:21;2.03;;;1.65;;
19004;SDS011;9635;52.078;8.648;2023-11-18T22:52:24;2.15;;;1.90;;
19004;SDS011;9635;52.078;8.648;2023-11-18T22:57:28;2.53;;;1.70;;
19004;SDS011;9635;52.078;8.648;2023-11-18T23:02:31;1.65;;;1.55;;
19004;SDS011;9635;52.078;8.648;2023-11-18T23:07:34;2.08;;;1.98;;
19004;SDS011;9635;52.078;8.648;2023-11-18T23:12:38;5.65;;;2.60;;
19004;SDS011;9635;52.078;8.648;2023-11-18T23:17:42;3.28;;;2.42;;
19004;SDS011;9635;52.078;8.648;2023-11-18T23:22:47;2.13;;;2.03;;
19004;SDS011;9635;52.078;8.648;2023-11-18T23:27:53;2.60;;;2.40;;
19004;SDS011;9635;52.078;8.648;2023-11-18T23:32:58;2.85;;;2.63;;
19004;SDS011;9635;52.078;8.648;2023-11-18T23:38:01;2.75;;;2.55;;
19004;SDS011;9635;52.078;8.648;2023-11-18T23:43:08;3.22;;;2.92;;
19004;SDS011;9635;52.078;8.648;2023-11-18T23:48:11;3.75;;;3.30;;
19004;SDS011;9635;52.078;8.648;2023-11-18T23:53:15;3.92;;;3.53;;
19004;SDS011;9635;52.078;8.648;2023-11-18T23:58:19;3.92;;;3.63;;
